METAR Data
IDs: Format: Raw Decoded Include TAF

Data at: 2135 UTC 18 Apr 2021

LZIB 182130Z 32002KT 9999 -RA FEW035 BKN040 08/05 Q1018